Time;durP1;ratioP1;P1;durP2;ratioP2;P2;SDS_P1;SDS_P2;PMS_P1;PMS_P2;Temp;Humidity;BMP_temperature;BMP_pressure;BME280_temperature;BME280_humidity;BME280_pressure;Samples;Min_cycle;Max_cycle;Signal;HPM_P1;HPM_P2
2021/04/29 00:01:29;;;;;;;16.10;14.40;;;11.70;1.00;;;;;;5073237;28;20455;-78
2021/04/29 00:03:55;;;;;;;18.20;15.57;;;11.70;1.00;;;;;;5069037;28;20467;-79
2021/04/29 00:06:22;;;;;;;16.37;14.77;;;11.70;1.00;;;;;;5066081;28;20490;-79
2021/04/29 00:08:48;;;;;;;15.57;13.90;;;11.70;1.00;;;;;;5063464;28;20487;-80
2021/04/29 00:11:14;;;;;;;16.60;15.10;;;11.70;1.00;;;;;;5065071;28;20591;-77
2021/04/29 00:13:42;;;;;;;16.50;14.40;;;11.70;1.00;;;;;;5048194;28;20464;-80
2021/04/29 00:16:08;;;;;;;16.07;14.53;;;11.70;1.00;;;;;;5065939;28;20463;-79
2021/04/29 00:18:34;;;;;;;18.27;14.50;;;11.70;1.00;;;;;;5066139;28;20986;-80
2021/04/29 00:21:01;;;;;;;17.17;15.57;;;11.60;1.00;;;;;;5063368;28;20441;-79
2021/04/29 00:23:28;;;;;;;16.17;14.57;;;11.60;1.00;;;;;;5071804;28;20559;-81
2021/04/29 00:25:55;;;;;;;16.47;14.90;;;11.70;1.00;;;;;;5061077;28;20428;-79
2021/04/29 00:28:21;;;;;;;17.00;15.37;;;11.60;1.00;;;;;;5069987;28;20479;-80
2021/04/29 00:30:48;;;;;;;17.60;15.40;;;11.70;1.00;;;;;;5071599;28;20488;-79
2021/04/29 00:33:14;;;;;;;16.08;14.65;;;11.60;1.00;;;;;;5063163;28;20481;-79
2021/04/29 00:35:40;;;;;;;16.95;15.25;;;11.60;1.00;;;;;;5063292;28;20479;-80
2021/04/29 00:38:07;;;;;;;17.30;14.63;;;11.60;1.00;;;;;;5061347;28;20225;-78
2021/04/29 00:40:34;;;;;;;16.17;14.53;;;11.60;1.00;;;;;;5074092;28;20501;-78
2021/04/29 00:43:00;;;;;;;17.87;16.00;;;11.60;1.00;;;;;;5070509;28;20460;-80
2021/04/29 00:45:27;;;;;;;16.00;14.50;;;11.60;1.00;;;;;;5069561;28;20444;-79
2021/04/29 00:47:55;;;;;;;17.00;15.20;;;11.60;1.00;;;;;;5054647;28;20229;-80
2021/04/29 00:50:24;;;;;;;18.87;16.20;;;11.60;1.00;;;;;;5072250;28;20655;-78
2021/04/29 00:52:50;;;;;;;16.23;14.63;;;11.50;1.00;;;;;;5073863;28;20452;-78
2021/04/29 00:55:16;;;;;;;16.37;14.80;;;11.50;1.00;;;;;;5081249;28;20475;-78
2021/04/29 00:57:43;;;;;;;17.50;15.70;;;11.50;1.00;;;;;;5071283;28;20484;-79
2021/04/29 01:00:11;;;;;;;17.93;16.03;;;11.50;1.00;;;;;;5065987;28;20915;-79
2021/04/29 01:02:40;;;;;;;17.92;16.13;;;11.50;1.00;;;;;;5068407;28;20936;-81
2021/04/29 01:05:13;;;;;;;16.77;15.05;;;11.50;1.00;;;;;;5062883;28;20292;-80
2021/04/29 01:07:42;;;;;;;17.00;15.30;;;11.50;1.00;;;;;;5069573;28;20251;-77
2021/04/29 01:10:17;;;;;;;17.10;15.27;;;11.50;1.00;;;;;;5071618;28;20266;-79
2021/04/29 01:12:49;;;;;;;16.02;14.43;;;11.40;1.00;;;;;;5073564;28;20431;-78
2021/04/29 01:15:17;;;;;;;18.35;16.55;;;11.40;1.00;;;;;;5068514;28;20236;-78
2021/04/29 01:17:45;;;;;;;17.03;15.23;;;11.40;1.00;;;;;;5053583;28;20227;-78
2021/04/29 01:20:19;;;;;;;17.40;15.27;;;11.30;1.00;;;;;;5072738;28;20445;-78
2021/04/29 01:22:54;;;;;;;16.70;15.05;;;11.20;1.00;;;;;;5071750;28;20459;-79
2021/04/29 01:25:26;;;;;;;17.90;16.13;;;11.20;1.00;;;;;;5069379;28;20230;-80
2021/04/29 01:27:53;;;;;;;20.25;15.13;;;11.20;1.00;;;;;;5065920;28;20241;-79
2021/04/29 01:30:20;;;;;;;18.50;16.67;;;11.20;1.00;;;;;;5053828;28;20322;-78
2021/04/29 01:32:47;;;;;;;17.98;14.68;;;11.20;1.00;;;;;;5055236;28;22316;-80
2021/04/29 01:35:13;;;;;;;16.80;14.70;;;11.20;1.00;;;;;;5058072;28;20214;-79
2021/04/29 01:37:40;;;;;;;19.00;16.57;;;11.20;1.00;;;;;;5048242;28;20755;-79
2021/04/29 01:40:09;;;;;;;15.37;13.87;;;11.20;1.00;;;;;;5064321;28;20568;-79
2021/04/29 01:42:37;;;;;;;18.57;16.07;;;11.20;1.00;;;;;;5066245;28;20501;-79
2021/04/29 01:45:05;;;;;;;16.07;14.40;;;11.30;1.00;;;;;;5052960;28;20497;-79
2021/04/29 01:47:34;;;;;;;15.40;13.90;;;11.30;1.00;;;;;;5060234;28;20448;-79
2021/04/29 01:50:01;;;;;;;14.80;13.40;;;11.30;1.00;;;;;;5081995;28;20443;-78
2021/04/29 01:52:28;;;;;;;17.47;15.63;;;11.20;1.00;;;;;;5076313;28;21348;-78
2021/04/29 01:54:55;;;;;;;18.27;15.07;;;11.20;1.00;;;;;;5072700;28;20427;-79
2021/04/29 01:57:21;;;;;;;15.20;13.88;;;11.20;1.00;;;;;;5070787;28;20429;-78
2021/04/29 01:59:48;;;;;;;16.98;15.38;;;11.10;1.00;;;;;;5069349;28;21194;-80
2021/04/29 02:02:15;;;;;;;16.60;15.00;;;11.10;1.00;;;;;;5067532;28;20292;-78
2021/04/29 02:04:41;;;;;;;17.35;15.57;;;11.10;1.00;;;;;;5064743;28;20256;-79
2021/04/29 02:07:08;;;;;;;17.45;15.15;;;11.00;1.00;;;;;;5066346;28;20231;-79
2021/04/29 02:09:34;;;;;;;22.00;15.03;;;11.00;1.00;;;;;;5068401;28;20234;-79
2021/04/29 02:12:01;;;;;;;16.65;15.05;;;11.00;1.00;;;;;;5066976;28;20472;-78
2021/04/29 02:14:31;;;;;;;15.83;14.23;;;11.00;1.00;;;;;;5067852;28;20351;-78
2021/04/29 02:17:00;;;;;;;19.85;15.55;;;11.00;1.00;;;;;;5050215;28;20450;-78
2021/04/29 02:19:28;;;;;;;15.60;14.10;;;11.10;1.00;;;;;;5069414;28;20479;-78
2021/04/29 02:21:55;;;;;;;17.87;15.83;;;11.10;1.00;;;;;;5072956;28;20475;-78
2021/04/29 02:24:22;;;;;;;16.23;14.50;;;11.10;1.00;;;;;;5073226;28;20458;-78
2021/04/29 02:26:50;;;;;;;16.05;14.52;;;11.10;1.00;;;;;;5073223;28;20418;-77
2021/04/29 02:29:18;;;;;;;18.07;16.23;;;11.10;1.00;;;;;;5063697;28;20286;-79
2021/04/29 02:31:46;;;;;;;16.37;14.77;;;11.20;1.00;;;;;;5078160;28;20432;-77
2021/04/29 02:34:12;;;;;;;16.48;14.90;;;11.10;1.00;;;;;;5084693;28;20478;-77
2021/04/29 02:36:40;;;;;;;17.50;15.20;;;11.10;1.00;;;;;;5076537;28;20235;-79
2021/04/29 02:39:07;;;;;;;16.38;14.18;;;11.10;1.00;;;;;;5076636;28;20510;-79
2021/04/29 02:41:34;;;;;;;19.10;16.10;;;11.10;1.00;;;;;;5067540;28;20357;-79
2021/04/29 02:44:02;;;;;;;17.13;15.43;;;11.10;1.00;;;;;;5082900;28;20459;-80
2021/04/29 02:46:28;;;;;;;17.23;14.27;;;11.10;1.00;;;;;;5088349;28;20412;-80
2021/04/29 02:48:55;;;;;;;21.53;15.73;;;11.10;1.00;;;;;;5082498;28;20536;-78
2021/04/29 02:51:22;;;;;;;16.20;14.27;;;11.10;1.00;;;;;;5079744;28;20475;-81
2021/04/29 02:53:49;;;;;;;17.20;14.70;;;11.00;1.00;;;;;;5085726;28;20224;-80
2021/04/29 02:56:16;;;;;;;18.13;16.23;;;11.10;1.00;;;;;;5082567;28;20231;-80
2021/04/29 02:58:47;;;;;;;18.63;15.00;;;11.00;1.00;;;;;;5082960;28;20463;-81
2021/04/29 03:01:14;;;;;;;19.02;15.48;;;11.10;1.00;;;;;;5083295;28;21387;-79
2021/04/29 03:03:42;;;;;;;16.90;15.20;;;11.00;1.00;;;;;;5067847;28;20275;-81
2021/04/29 03:06:08;;;;;;;20.33;15.50;;;11.10;1.00;;;;;;5082806;28;20250;-79
2021/04/29 03:08:35;;;;;;;18.63;15.63;;;11.10;1.00;;;;;;5083598;28;20456;-78
2021/04/29 03:11:04;;;;;;;16.85;15.20;;;11.20;1.00;;;;;;5071687;28;20494;-78
2021/04/29 03:13:30;;;;;;;16.27;14.67;;;11.20;1.00;;;;;;5081275;28;20260;-79
2021/04/29 03:15:57;;;;;;;16.37;14.80;;;11.10;1.00;;;;;;5065076;28;20466;-78
2021/04/29 03:18:23;;;;;;;17.13;15.43;;;11.20;1.00;;;;;;5076935;28;20437;-79
2021/04/29 03:20:49;;;;;;;18.33;16.10;;;11.10;1.00;;;;;;5075039;28;20560;-80
2021/04/29 03:23:15;;;;;;;17.10;14.80;;;11.10;1.00;;;;;;5076254;28;20223;-79
2021/04/29 03:25:43;;;;;;;16.73;14.40;;;11.10;1.00;;;;;;5080625;28;20294;-80
2021/04/29 03:28:10;;;;;;;20.17;16.10;;;11.10;1.00;;;;;;5065673;28;20506;-81
2021/04/29 03:30:37;;;;;;;18.23;16.37;;;11.10;1.00;;;;;;5084373;28;20748;-78
2021/04/29 03:33:03;;;;;;;18.52;15.40;;;11.20;1.00;;;;;;5085236;28;20615;-80
2021/04/29 03:35:29;;;;;;;19.95;15.25;;;11.20;1.00;;;;;;5069156;28;20227;-79
2021/04/29 03:37:56;;;;;;;21.40;17.00;;;11.10;1.00;;;;;;5078941;28;20227;-78
2021/04/29 03:40:22;;;;;;;17.42;15.68;;;11.20;1.00;;;;;;5088067;28;20437;-80
2021/04/29 03:42:48;;;;;;;18.67;16.35;;;11.20;1.00;;;;;;5095798;28;20245;-79
2021/04/29 03:45:16;;;;;;;21.60;16.33;;;11.20;1.00;;;;;;5087197;28;20303;-78
2021/04/29 03:47:42;;;;;;;19.67;16.77;;;11.20;1.00;;;;;;5099252;28;20426;-79
2021/04/29 03:50:09;;;;;;;23.00;17.35;;;11.20;1.00;;;;;;5080710;28;20432;-80
2021/04/29 03:52:36;;;;;;;20.33;16.47;;;11.20;1.00;;;;;;5079202;28;20233;-79
2021/04/29 03:55:02;;;;;;;18.17;14.87;;;11.20;1.00;;;;;;5084518;28;20471;-77
2021/04/29 03:57:28;;;;;;;17.73;16.13;;;11.20;1.00;;;;;;5099274;28;20424;-79
2021/04/29 03:59:55;;;;;;;18.83;16.90;;;11.30;1.00;;;;;;5099300;28;20567;-77
2021/04/29 04:02:22;;;;;;;17.15;15.45;;;11.20;1.00;;;;;;5105306;28;20421;-80
2021/04/29 04:04:48;;;;;;;21.97;17.50;;;11.20;1.00;;;;;;5094044;28;20208;-80
2021/04/29 04:07:16;;;;;;;17.57;15.87;;;11.20;1.00;;;;;;5100372;28;20404;-78
2021/04/29 04:09:43;;;;;;;21.73;17.47;;;11.20;1.00;;;;;;5084115;28;20419;-78
2021/04/29 04:12:09;;;;;;;18.27;16.10;;;11.10;1.00;;;;;;5089007;28;20449;-80
2021/04/29 04:14:36;;;;;;;19.20;16.93;;;11.00;1.00;;;;;;5092846;28;20419;-79
2021/04/29 04:17:02;;;;;;;17.20;15.70;;;10.90;1.00;;;;;;5086856;22;20954;-81
2021/04/29 04:19:29;;;;;;;20.10;16.60;;;10.80;1.00;;;;;;5066306;28;20451;-81
2021/04/29 04:21:56;;;;;;;21.83;19.50;;;10.70;1.00;;;;;;5073561;28;20673;-80
2021/04/29 04:24:22;;;;;;;22.70;19.47;;;10.70;1.00;;;;;;5051966;28;20473;-80
2021/04/29 04:26:49;;;;;;;20.90;18.88;;;10.60;1.00;;;;;;5075496;28;20543;-81
2021/04/29 04:29:15;;;;;;;21.42;19.33;;;10.60;1.00;;;;;;5070389;28;20725;-81
2021/04/29 04:31:41;;;;;;;18.33;16.60;;;10.60;1.00;;;;;;5075489;28;20259;-81
2021/04/29 04:34:08;;;;;;;22.73;20.00;;;10.50;1.00;;;;;;5072953;28;20313;-81
2021/04/29 04:36:35;;;;;;;19.13;17.17;;;10.50;1.00;;;;;;5071223;28;20959;-81
2021/04/29 04:39:02;;;;;;;21.48;17.52;;;10.40;1.00;;;;;;5066266;28;21702;-81
2021/04/29 04:41:28;;;;;;;19.77;17.73;;;10.50;1.00;;;;;;5067125;28;20228;-80
2021/04/29 04:43:55;;;;;;;23.13;17.07;;;10.60;1.00;;;;;;5074509;28;20266;-80
2021/04/29 04:46:21;;;;;;;22.30;19.90;;;10.60;1.00;;;;;;5051862;28;20545;-80
2021/04/29 04:48:47;;;;;;;22.80;19.40;;;10.70;1.00;;;;;;5072729;28;20218;-81
2021/04/29 04:51:14;;;;;;;21.30;19.05;;;10.90;1.00;;;;;;5069800;28;20242;-80
2021/04/29 04:53:41;;;;;;;26.13;20.25;;;10.90;1.00;;;;;;5069343;28;20219;-80
2021/04/29 04:56:08;;;;;;;20.23;17.97;;;11.00;1.00;;;;;;5067814;28;20246;-80
2021/04/29 04:58:34;;;;;;;21.60;19.40;;;11.10;1.00;;;;;;5069150;28;20539;-80
2021/04/29 05:01:00;;;;;;;20.13;17.42;;;11.20;1.00;;;;;;5068158;28;20461;-80
2021/04/29 05:03:28;;;;;;;22.10;18.08;;;11.20;1.00;;;;;;5069766;28;20225;-80
2021/04/29 05:05:54;;;;;;;22.40;17.43;;;11.30;1.00;;;;;;5068611;28;20231;-80
2021/04/29 05:08:21;;;;;;;19.40;17.50;;;11.30;1.00;;;;;;5066860;28;20475;-80
2021/04/29 05:10:49;;;;;;;18.47;16.47;;;11.30;1.00;;;;;;5070237;28;20451;-81
2021/04/29 05:13:15;;;;;;;20.77;17.73;;;11.30;1.00;;;;;;5065835;28;20454;-81
2021/04/29 05:15:42;;;;;;;28.97;18.73;;;11.30;1.00;;;;;;5049070;28;21413;-80
2021/04/29 05:18:08;;;;;;;22.47;19.00;;;11.40;1.00;;;;;;5066246;28;20464;-81
2021/04/29 05:20:34;;;;;;;22.77;18.50;;;11.40;1.00;;;;;;5054345;28;20560;-81
2021/04/29 05:23:01;;;;;;;18.03;16.33;;;11.40;1.00;;;;;;5074806;28;20455;-80
2021/04/29 05:25:27;;;;;;;20.00;17.80;;;11.40;1.00;;;;;;5075052;28;20468;-82
2021/04/29 05:27:59;;;;;;;20.33;18.03;;;11.30;1.00;;;;;;5076397;28;20458;-81
2021/04/29 05:30:25;;;;;;;21.13;18.47;;;11.30;1.00;;;;;;5073694;28;20452;-81
2021/04/29 05:32:52;;;;;;;19.60;17.70;;;11.30;1.00;;;;;;5052563;28;20487;-81
2021/04/29 05:35:19;;;;;;;20.57;18.47;;;11.40;1.00;;;;;;5071475;28;20448;-81
2021/04/29 05:37:46;;;;;;;21.10;17.10;;;11.40;1.00;;;;;;5067995;28;21569;-81
2021/04/29 05:40:13;;;;;;;22.63;19.87;;;11.40;1.00;;;;;;5076920;28;20432;-83
2021/04/29 05:42:40;;;;;;;18.83;16.93;;;11.50;1.00;;;;;;5071877;28;20463;-81
2021/04/29 05:45:10;;;;;;;26.77;18.23;;;11.50;1.00;;;;;;5076622;28;20965;-81
2021/04/29 05:47:37;;;;;;;21.80;19.00;;;11.60;1.00;;;;;;5071460;28;21423;-82
2021/04/29 05:50:05;;;;;;;19.90;18.07;;;11.50;1.00;;;;;;5056107;28;20448;-81
2021/04/29 05:52:31;;;;;;;19.20;17.33;;;11.50;1.00;;;;;;5067294;28;21252;-81
2021/04/29 05:54:58;;;;;;;20.67;18.57;;;11.40;1.00;;;;;;5057150;28;20400;-83
2021/04/29 05:57:25;;;;;;;21.85;19.42;;;11.30;1.00;;;;;;5063472;28;20483;-82
2021/04/29 05:59:51;;;;;;;21.77;19.57;;;11.30;1.00;;;;;;5063101;28;20320;-77
2021/04/29 06:02:18;;;;;;;21.83;19.10;;;11.30;1.00;;;;;;5058504;28;20447;-80
2021/04/29 06:04:44;;;;;;;22.93;19.50;;;11.30;1.00;;;;;;5058502;28;20488;-78
2021/04/29 06:07:13;;;;;;;20.73;18.70;;;11.20;1.00;;;;;;5054815;28;20480;-78
2021/04/29 06:09:39;;;;;;;20.40;18.47;;;11.20;1.00;;;;;;5061599;28;20494;-79
2021/04/29 06:12:07;;;;;;;22.13;19.97;;;11.10;1.00;;;;;;5042925;28;20425;-78
2021/04/29 06:14:33;;;;;;;23.53;21.17;;;11.10;1.00;;;;;;5069103;28;20469;-77
2021/04/29 06:16:59;;;;;;;22.70;20.60;;;11.00;1.00;;;;;;5061309;28;20459;-77
2021/04/29 06:19:26;;;;;;;22.70;20.70;;;11.00;1.00;;;;;;5060321;28;20440;-77
2021/04/29 06:21:52;;;;;;;22.43;20.13;;;10.90;1.00;;;;;;5063244;28;20526;-79
2021/04/29 06:24:19;;;;;;;24.40;21.98;;;11.00;1.00;;;;;;5061016;28;20454;-81
2021/04/29 06:26:45;;;;;;;21.77;19.83;;;10.90;1.00;;;;;;5061417;28;20249;-79
2021/04/29 06:29:12;;;;;;;24.07;21.67;;;10.90;1.00;;;;;;5067328;28;20476;-79
2021/04/29 06:31:40;;;;;;;23.17;20.70;;;10.90;1.00;;;;;;5067436;28;20498;-78
2021/04/29 06:34:07;;;;;;;23.33;20.83;;;10.80;1.00;;;;;;5070385;28;20443;-78
2021/04/29 06:36:36;;;;;;;23.33;21.00;;;10.80;1.00;;;;;;5060038;28;20538;-77
2021/04/29 06:39:03;;;;;;;22.90;20.67;;;10.80;1.00;;;;;;5060738;28;20478;-79
2021/04/29 06:41:30;;;;;;;24.00;21.53;;;10.80;1.00;;;;;;5062774;28;20463;-78
2021/04/29 06:43:56;;;;;;;23.17;20.67;;;10.80;1.00;;;;;;5058930;28;20444;-80
2021/04/29 06:46:22;;;;;;;21.90;19.70;;;10.80;1.00;;;;;;5062566;28;20423;-80
2021/04/29 06:48:49;;;;;;;23.10;20.77;;;10.80;1.00;;;;;;5063506;28;20455;-79
2021/04/29 06:51:15;;;;;;;22.30;20.30;;;10.70;1.00;;;;;;5059592;28;20458;-78
2021/04/29 06:53:42;;;;;;;20.77;18.97;;;10.70;1.00;;;;;;5042900;28;20425;-80
2021/04/29 06:56:08;;;;;;;22.53;20.23;;;10.60;1.00;;;;;;5048974;28;20573;-79
2021/04/29 06:58:34;;;;;;;22.83;20.50;;;10.60;1.00;;;;;;5061158;28;20454;-80
2021/04/29 07:01:01;;;;;;;22.50;20.25;;;10.50;1.00;;;;;;5060456;28;20597;-79
2021/04/29 07:03:28;;;;;;;20.33;18.23;;;10.60;1.00;;;;;;5063178;28;20228;-81
2021/04/29 07:05:54;;;;;;;19.52;17.50;;;10.50;1.00;;;;;;5064891;28;20236;-80
2021/04/29 07:08:20;;;;;;;18.20;16.50;;;10.50;1.00;;;;;;5067253;28;20272;-79
2021/04/29 07:10:49;;;;;;;19.47;17.70;;;10.40;1.00;;;;;;5064990;28;20243;-79
2021/04/29 07:13:15;;;;;;;17.83;16.13;;;10.30;1.00;;;;;;5066946;28;20420;-77
2021/04/29 07:15:42;;;;;;;23.37;19.63;;;10.30;1.00;;;;;;5060205;28;20247;-79
2021/04/29 07:18:10;;;;;;;21.48;18.00;;;10.30;1.00;;;;;;5069903;28;20569;-79
2021/04/29 07:20:37;;;;;;;19.60;17.50;;;10.30;1.00;;;;;;5063447;28;20316;-79
2021/04/29 07:23:04;;;;;;;18.53;17.00;;;10.30;1.00;;;;;;5061801;28;20233;-75
2021/04/29 07:25:30;;;;;;;18.33;16.50;;;10.30;1.00;;;;;;5073741;28;21347;-75
2021/04/29 07:27:57;;;;;;;20.38;18.20;;;10.20;1.00;;;;;;5070661;28;21276;-76
2021/04/29 07:30:24;;;;;;;27.20;24.50;;;10.20;1.00;;;;;;5077178;28;20243;-75
2021/04/29 07:32:50;;;;;;;22.37;20.07;;;10.20;1.00;;;;;;5062727;28;20457;-75
2021/04/29 07:35:16;;;;;;;20.33;18.23;;;10.30;1.00;;;;;;5075497;28;20440;-74
2021/04/29 07:37:43;;;;;;;22.00;20.00;;;10.30;1.00;;;;;;5057557;28;20547;-78
2021/04/29 07:40:10;;;;;;;20.57;18.53;;;10.40;1.00;;;;;;5067498;28;20411;-78
2021/04/29 07:42:36;;;;;;;21.37;19.10;;;10.30;1.00;;;;;;5065834;28;20530;-76
2021/04/29 07:45:03;;;;;;;22.88;20.88;;;10.30;1.00;;;;;;5068242;28;20486;-78
2021/04/29 07:47:30;;;;;;;22.55;20.05;;;10.20;1.00;;;;;;5063118;28;20323;-78
2021/04/29 07:49:57;;;;;;;28.43;21.97;;;10.20;1.00;;;;;;5063583;28;20878;-75
2021/04/29 07:52:24;;;;;;;21.53;19.40;;;10.20;1.00;;;;;;5062703;28;20439;-78
2021/04/29 07:54:50;;;;;;;22.20;20.13;;;10.10;1.00;;;;;;5063260;28;20475;-78
2021/04/29 07:57:16;;;;;;;25.17;22.60;;;10.00;1.00;;;;;;5063702;28;20222;-78
2021/04/29 07:59:42;;;;;;;24.48;22.27;;;9.90;1.00;;;;;;5064319;28;22892;-80
2021/04/29 08:02:09;;;;;;;23.80;21.55;;;10.00;1.00;;;;;;5064979;28;20227;-79
2021/04/29 08:04:35;;;;;;;22.95;20.75;;;10.00;1.00;;;;;;5063201;28;20226;-79
2021/04/29 08:07:02;;;;;;;23.73;21.38;;;9.90;1.00;;;;;;5062586;28;20292;-77
2021/04/29 08:09:28;;;;;;;23.20;20.83;;;9.90;1.00;;;;;;5054973;28;20674;-78
2021/04/29 08:11:55;;;;;;;29.07;21.37;;;9.90;1.00;;;;;;5070166;28;22369;-79
2021/04/29 08:14:21;;;;;;;22.95;20.75;;;9.90;1.00;;;;;;5048606;28;20617;-80
2021/04/29 08:16:48;;;;;;;25.80;23.10;;;9.90;1.00;;;;;;5063260;28;20421;-78
2021/04/29 08:19:15;;;;;;;25.35;22.75;;;9.80;1.00;;;;;;5065408;28;21893;-76
2021/04/29 08:21:41;;;;;;;25.97;23.40;;;9.90;1.00;;;;;;5061613;28;20256;-80
2021/04/29 08:24:08;;;;;;;25.63;23.23;;;9.90;1.00;;;;;;5047469;28;20410;-80
2021/04/29 08:26:35;;;;;;;23.13;20.90;;;10.00;1.00;;;;;;5068062;28;20260;-78
2021/04/29 08:29:01;;;;;;;25.27;22.75;;;9.90;1.00;;;;;;5064360;28;20232;-81
2021/04/29 08:31:28;;;;;;;26.80;23.98;;;9.90;1.00;;;;;;5063734;28;20222;-80
2021/04/29 08:33:54;;;;;;;24.50;22.20;;;10.00;1.00;;;;;;5063750;28;20957;-79
2021/04/29 08:36:21;;;;;;;33.38;24.33;;;10.00;1.00;;;;;;5066766;28;20233;-78
2021/04/29 08:38:47;;;;;;;41.30;37.10;;;10.10;1.00;;;;;;5056979;28;20222;-79
2021/04/29 08:41:14;;;;;;;28.85;25.75;;;10.10;1.00;;;;;;5060895;28;20452;-80
2021/04/29 08:43:40;;;;;;;26.23;23.63;;;10.20;1.00;;;;;;5063297;28;20388;-80
2021/04/29 08:46:06;;;;;;;26.40;24.00;;;10.30;1.00;;;;;;5061559;28;20235;-80
2021/04/29 08:48:33;;;;;;;27.48;25.00;;;10.20;1.00;;;;;;5061556;28;20380;-81
2021/04/29 08:51:01;;;;;;;25.52;23.15;;;10.20;1.00;;;;;;5062387;28;20677;-81
2021/04/29 08:53:29;;;;;;;26.85;24.25;;;10.10;1.00;;;;;;5067558;28;20223;-81
2021/04/29 08:55:55;;;;;;;27.58;23.85;;;10.10;1.00;;;;;;5068300;28;20234;-81
2021/04/29 08:58:22;;;;;;;26.15;23.58;;;10.10;1.00;;;;;;5066519;28;20282;-81
2021/04/29 09:00:58;;;;;;;25.30;22.73;;;10.20;1.00;;;;;;5043920;28;20228;-80
2021/04/29 09:03:29;;;;;;;27.83;23.25;;;10.10;1.00;;;;;;5041234;28;20252;-80
2021/04/29 09:06:00;;;;;;;26.83;24.33;;;10.20;1.00;;;;;;5058621;28;20280;-79
2021/04/29 09:08:32;;;;;;;28.17;25.48;;;10.20;1.00;;;;;;5057156;28;20233;-80
2021/04/29 09:11:13;;;;;;;27.80;25.20;;;10.20;1.00;;;;;;5061511;28;20316;-79
2021/04/29 09:13:41;;;;;;;30.47;27.57;;;10.40;1.00;;;;;;5066426;28;20502;-81
2021/04/29 09:16:11;;;;;;;28.25;25.55;;;10.60;1.00;;;;;;5071437;28;20453;-78
2021/04/29 09:18:42;;;;;;;27.20;24.58;;;10.70;1.00;;;;;;5074467;28;20211;-80
2021/04/29 09:21:13;;;;;;;27.40;24.55;;;10.80;1.00;;;;;;5074432;28;20212;-80
2021/04/29 09:23:42;;;;;;;27.45;24.85;;;10.90;1.00;;;;;;5055117;28;20637;-77
2021/04/29 09:26:10;;;;;;;25.53;23.10;;;11.10;1.00;;;;;;5059221;28;20227;-76
2021/04/29 09:28:39;;;;;;;25.93;23.33;;;11.20;1.00;;;;;;5054301;28;20463;-78
2021/04/29 09:31:06;;;;;;;26.87;24.30;;;11.40;1.00;;;;;;5055593;28;20495;-77
2021/04/29 09:33:35;;;;;;;25.40;22.90;;;11.60;1.00;;;;;;5057787;28;21538;-77
2021/04/29 09:36:01;;;;;;;24.67;22.40;;;12.00;1.00;;;;;;5055816;28;20459;-78
2021/04/29 09:38:36;;;;;;;24.60;22.40;;;12.10;1.00;;;;;;5034790;28;20546;-75
2021/04/29 09:41:04;;;;;;;26.17;23.77;;;12.20;1.00;;;;;;5058764;28;20451;-76
2021/04/29 09:43:31;;;;;;;26.40;23.97;;;12.40;1.00;;;;;;5060571;28;20554;-79
2021/04/29 09:45:59;;;;;;;24.77;22.50;;;12.80;1.00;;;;;;5039667;28;20492;-77
2021/04/29 09:48:37;;;;;;;23.73;21.53;;;13.00;1.00;;;;;;5057302;28;20412;-79
2021/04/29 09:51:06;;;;;;;23.97;21.97;;;13.10;1.00;;;;;;5056875;28;20444;-77
2021/04/29 09:53:40;;;;;;;28.17;23.53;;;13.20;1.00;;;;;;5056959;28;20420;-78
2021/04/29 09:56:09;;;;;;;22.97;20.67;;;13.60;1.00;;;;;;5055057;28;20445;-78
2021/04/29 09:58:36;;;;;;;25.33;22.93;;;13.90;1.00;;;;;;5060284;28;20571;-77
2021/04/29 10:01:05;;;;;;;27.47;24.57;;;14.10;1.00;;;;;;5041395;28;20475;-76
2021/04/29 10:03:33;;;;;;;27.50;23.47;;;14.10;1.00;;;;;;5033920;28;21116;-77
2021/04/29 10:06:00;;;;;;;24.97;22.47;;;14.40;1.00;;;;;;5063682;28;20490;-77
2021/04/29 10:08:27;;;;;;;24.03;21.63;;;15.00;1.00;;;;;;5059954;28;20493;-75
2021/04/29 10:10:57;;;;;;;23.38;21.38;;;15.60;1.00;;;;;;5047613;28;20421;-76
2021/04/29 10:13:30;;;;;;;22.90;21.07;;;16.00;1.00;;;;;;5063739;28;20230;-77
2021/04/29 10:15:57;;;;;;;22.00;20.10;;;16.50;1.00;;;;;;5066922;28;21557;-77
2021/04/29 10:18:24;;;;;;;21.77;20.07;;;17.00;1.00;;;;;;5057090;28;20424;-77
2021/04/29 10:20:53;;;;;;;23.00;21.00;;;17.00;1.00;;;;;;5062269;28;20409;-79
2021/04/29 10:23:21;;;;;;;22.60;20.63;;;16.60;1.00;;;;;;5063684;28;21192;-78
2021/04/29 10:25:52;;;;;;;22.90;20.90;;;16.10;1.00;;;;;;5059070;28;20452;-78
2021/04/29 10:28:37;;;;;;;23.83;21.63;;;15.60;1.00;;;;;;5055483;28;20476;-76
2021/04/29 10:31:18;;;;;;;24.33;22.27;;;15.10;1.00;;;;;;5037771;28;20499;-77
2021/04/29 10:33:53;;;;;;;24.90;22.60;;;14.60;1.00;;;;;;5057633;28;21269;-75
2021/04/29 10:36:21;;;;;;;26.03;23.80;;;14.40;1.00;;;;;;5059719;28;20467;-78
2021/04/29 10:38:47;;;;;;;25.30;23.30;;;14.30;1.00;;;;;;5053792;28;20463;-77
2021/04/29 10:41:20;;;;;;;26.90;24.60;;;14.30;1.00;;;;;;5057953;28;20451;-78
2021/04/29 10:43:50;;;;;;;27.60;24.97;;;14.20;1.00;;;;;;5056015;28;20474;-78
2021/04/29 10:46:29;;;;;;;27.30;25.00;;;14.20;1.00;;;;;;5061934;28;20445;-80
2021/04/29 10:48:56;;;;;;;27.10;24.87;;;14.40;1.00;;;;;;5062059;28;20453;-80
2021/04/29 10:51:30;;;;;;;26.07;23.70;;;14.40;1.00;;;;;;5049376;28;20432;-78
2021/04/29 10:54:06;;;;;;;28.73;25.97;;;14.50;1.00;;;;;;5065441;28;20450;-78
2021/04/29 10:56:33;;;;;;;28.67;26.17;;;14.50;1.00;;;;;;5061577;28;20420;-79
2021/04/29 10:59:07;;;;;;;28.80;25.83;;;14.60;1.00;;;;;;5063475;28;20563;-81
2021/04/29 11:01:42;;;;;;;28.77;26.07;;;14.90;1.00;;;;;;5060345;28;20441;-84
2021/04/29 11:04:17;;;;;;;29.33;26.73;;;15.30;1.00;;;;;;5052324;28;20462;-83
2021/04/29 11:06:44;;;;;;;29.40;26.53;;;15.70;1.00;;;;;;5073475;28;20463;-83
2021/04/29 11:09:19;;;;;;;27.73;24.93;;;16.50;1.00;;;;;;5064257;28;20457;-82
2021/04/29 11:12:25;;;;;;;27.17;25.00;;;17.60;1.00;;;;;;5070983;28;20509;-82
2021/04/29 11:14:59;;;;;;;27.47;24.87;;;18.50;1.00;;;;;;5057272;28;20482;-81
2021/04/29 11:18:02;;;;;;;26.77;24.47;;;19.10;1.00;;;;;;5086918;28;20431;-85
2021/04/29 11:21:04;;;;;;;28.07;25.77;;;19.80;1.00;;;;;;4992140;28;20514;-85
2021/04/29 11:24:02;;;;;;;27.00;24.70;;;20.50;1.00;;;;;;4989359;28;20459;-81
2021/04/29 11:27:01;;;;;;;28.23;25.73;;;20.70;1.00;;;;;;5070145;28;20480;-83
2021/04/29 11:29:36;;;;;;;29.77;27.27;;;20.60;1.00;;;;;;5080098;28;20443;-84
2021/04/29 11:32:04;;;;;;;29.77;27.37;;;20.50;1.00;;;;;;5092091;28;20491;-83
2021/04/29 11:34:41;;;;;;;32.13;29.23;;;19.60;1.00;;;;;;5083525;28;20435;-77
2021/04/29 11:37:08;;;;;;;32.07;29.33;;;19.00;1.00;;;;;;5069162;28;20462;-77
2021/04/29 11:39:34;;;;;;;30.03;27.53;;;18.60;1.00;;;;;;5067130;28;20399;-77
2021/04/29 11:42:00;;;;;;;31.07;28.40;;;18.40;1.00;;;;;;5064673;28;20446;-79
2021/04/29 11:44:28;;;;;;;29.97;27.27;;;18.30;1.00;;;;;;5070424;28;20482;-77
2021/04/29 11:46:54;;;;;;;30.80;28.30;;;18.10;1.00;;;;;;5065042;28;20498;-79
2021/04/29 11:49:21;;;;;;;28.43;26.03;;;17.90;1.00;;;;;;5064060;28;20447;-79
2021/04/29 11:51:50;;;;;;;27.40;25.20;;;18.30;1.00;;;;;;5061802;28;21085;-78
2021/04/29 11:54:18;;;;;;;29.83;24.20;;;19.50;1.00;;;;;;5060118;28;21007;-79
2021/04/29 11:56:46;;;;;;;23.90;21.90;;;20.10;1.00;;;;;;5060066;28;20470;-80
2021/04/29 11:59:13;;;;;;;24.57;22.27;;;20.20;1.00;;;;;;5063043;28;20444;-79
2021/04/29 12:01:40;;;;;;;23.77;21.77;;;19.90;1.00;;;;;;5063396;28;20432;-79
2021/04/29 12:04:17;;;;;;;20.87;19.27;;;19.70;1.00;;;;;;5063174;28;20457;-80
2021/04/29 12:06:49;;;;;;;22.27;20.37;;;19.60;1.00;;;;;;5058115;28;20467;-77
2021/04/29 12:09:16;;;;;;;21.73;19.80;;;19.10;1.00;;;;;;5056755;28;20542;-77
2021/04/29 12:11:45;;;;;;;22.37;20.60;;;18.50;1.00;;;;;;5057408;28;20459;-78
2021/04/29 12:14:13;;;;;;;21.27;19.53;;;18.60;1.00;;;;;;5057205;28;20508;-78
2021/04/29 12:16:40;;;;;;;21.90;20.00;;;20.00;1.00;;;;;;5060201;28;20435;-80
2021/04/29 12:19:07;;;;;;;20.87;19.17;;;21.40;1.00;;;;;;5062707;28;20448;-78
2021/04/29 12:21:33;;;;;;;20.63;18.87;;;22.60;1.00;;;;;;5061020;28;20531;-80
2021/04/29 12:24:02;;;;;;;19.00;17.47;;;23.60;1.00;;;;;;5066645;28;20404;-79
2021/04/29 12:26:31;;;;;;;20.57;18.97;;;24.20;1.00;;;;;;5083078;22;20498;-80
2021/04/29 12:29:04;;;;;;;21.43;19.73;;;22.70;1.00;;;;;;5102060;28;20416;-81
2021/04/29 12:31:31;;;;;;;20.53;18.73;;;21.60;1.00;;;;;;5099533;28;20637;-81
2021/04/29 12:34:01;;;;;;;19.00;17.60;;;21.40;1.00;;;;;;5078150;28;20506;-82
2021/04/29 12:36:28;;;;;;;19.70;18.00;;;21.20;1.00;;;;;;5097915;27;20427;-79
2021/04/29 12:38:54;;;;;;;20.57;18.90;;;20.90;1.00;;;;;;5084179;28;20509;-83
2021/04/29 12:41:26;;;;;;;19.80;18.33;;;21.20;1.00;;;;;;5070082;28;20439;-81
2021/04/29 12:44:00;;;;;;;19.17;17.67;;;21.20;1.00;;;;;;5077099;28;20430;-80